Latest Weather Observations for Port Hedland

IDW60801

Issued at 1:35 am WST Thursday 18 September 2014 (issued every 30 minutes, with the page automatically refreshed every 10 minutes)

About weather observations | Map of weather stations | Latest weather observations for WA | Other Formats
Station Details ID: 004032 Name: PORT HEDLAND AIRPORT Lat: -20.37 Lon: 118.63 Height: 6.4 m
Data from the previous 72 hours. | See also: Recent months at Port Hedland
Date/Time
WST
Temp
°C
App
Temp
°C
Dew
Point
Rel
Hum
%
Delta-T
°C
Wind Press
QNH
hPa
Press
MSL
hPa
Rain
since 9 am
mm
Dir
 
Spd
km/h
Gust
km/h
Spd
kts
Gust
kts
18/01:30am 19.6 20.8 19.0 96 0.4 WNW 11 13 6 7 1014.5 - 0.0
18/01:00am 19.7 20.4 18.9 95 0.5 NW 13 13 7 7 1014.7 - 0.0
18/12:30am 20.3 21.7 19.5 95 0.5 NNW 11 13 6 7 1014.8 - 0.0
18/12:11am 20.3 22.2 19.7 96 0.4 N 9 11 5 6 1014.9 - 0.0
18/12:00am 19.8 21.2 19.6 99 0.1 NNW 11 13 6 7 1015.0 1015.0 0.0
 
Date/Time
WST
Temp
°C
App
Temp
°C
Dew
Point
Rel
Hum
%
Delta-T
°C
Wind Press
QNH
hPa
Press
MSL
hPa
Rain
since 9 am
mm
Dir
 
Spd
km/h
Gust
km/h
Spd
kts
Gust
kts
17/11:35pm 20.5 22.5 20.0 97 0.3 NNW 9 11 5 6 1015.1 - 0.0
17/11:30pm 20.4 22.2 19.6 95 0.5 NNW 9 11 5 6 1015.1 - 0.0
17/11:00pm 19.4 22.5 18.6 95 0.5 CALM 0 0 0 0 1015.3 - 0.0
17/10:30pm 19.9 21.4 18.9 94 0.6 WNW 9 9 5 5 1015.3 - 0.0
17/10:00pm 19.6 20.6 18.6 94 0.6 NNW 11 17 6 9 1015.5 - 0.0
17/09:30pm 20.2 21.4 19.1 93 0.7 WSW 11 13 6 7 1015.2 - 0.0
17/09:00pm 21.2 23.5 19.8 92 0.9 SW 7 9 4 5 1015.0 1015.0 0.0
17/08:30pm 21.3 22.9 19.9 92 0.9 WSW 11 13 6 7 1014.8 - 0.0
17/08:00pm 21.8 23.9 20.1 90 1.1 W 9 11 5 6 1014.4 - 0.0
17/07:30pm 22.1 23.7 19.9 87 1.4 WNW 11 13 6 7 1014.1 - 0.0
17/07:00pm 23.3 24.9 20.8 86 1.6 NW 13 17 7 9 1013.7 - 0.0
17/06:30pm 24.2 25.0 20.7 81 2.3 NW 17 20 9 11 1013.3 - 0.0
17/06:00pm 25.2 25.4 20.1 73 3.3 NW 19 22 10 12 1012.9 1012.9 0.0
17/05:30pm 26.9 26.5 19.0 62 5.1 NW 19 22 10 12 1012.6 - 0.0
17/05:00pm 29.5 27.6 14.3 39 9.2 WNW 17 22 9 12 1012.2 - 0.0
17/04:30pm 31.3 28.0 11.6 29 11.5 NW 20 26 11 14 1011.9 - 0.0
17/04:00pm 31.7 28.4 12.9 31 11.2 WNW 22 30 12 16 1011.8 - 0.0
17/03:30pm 31.8 29.6 14.9 36 10.4 NW 20 26 11 14 1011.7 - 0.0
17/03:00pm 31.0 29.7 17.3 43 8.7 NW 20 28 11 15 1011.7 1011.7 0.0
17/02:30pm 31.2 28.2 13.8 34 10.5 NW 22 28 12 15 1011.9 - 0.0
17/02:00pm 32.0 30.7 17.2 41 9.4 NW 20 30 11 16 1012.0 - 0.0
17/01:30pm 31.3 30.0 17.3 43 8.9 NW 20 26 11 14 1012.2 - 0.0
17/01:00pm 31.3 29.8 18.6 46 8.2 NNW 24 28 13 15 1012.6 - 0.0
17/12:30pm 31.4 30.7 18.2 45 8.5 NNW 19 24 10 13 1013.0 - 0.0
17/12:00pm 31.0 29.8 17.5 44 8.6 NNW 20 28 11 15 1013.3 1013.3 0.0
17/11:30am 29.9 28.1 17.0 45 8.1 N 22 30 12 16 1013.9 - 0.0
17/11:00am 29.0 26.5 14.2 40 8.9 N 20 24 11 13 1014.0 - 0.0
17/10:51am 29.2 24.9 15.9 44 8.2 NNE 33 44 18 24 1014.5 - 0.0
17/10:30am 31.3 30.1 11.6 29 11.5 NNE 9 19 5 10 1014.0 - 0.0
17/10:00am 32.2 30.3 7.7 21 13.5 S 7 9 4 5 1014.1 - 0.0
17/09:30am 30.1 28.7 9.6 28 11.5 WSW 7 11 4 6 1014.3 - 0.0
17/09:00am 28.5 27.1 9.7 31 10.5 W 7 11 4 6 1014.3 1014.3 0.0
17/08:30am 26.6 26.1 12.0 40 8.4 W 6 11 3 6 1014.4 - 0.0
17/08:00am 23.8 23.1 13.3 51 6.1 SW 9 13 5 7 1014.0 - 0.0
17/07:30am 21.6 22.6 14.4 63 4.2 ESE 2 9 1 5 1013.7 - 0.0
17/07:00am 19.4 20.3 16.6 84 1.7 NE 7 17 4 9 1013.5 - 0.0
17/06:30am 16.7 17.2 15.5 93 0.7 ESE 7 9 4 5 1012.8 - 0.0
17/06:00am 16.5 16.3 14.8 90 1.0 ESE 9 15 5 8 1012.4 1012.4 0.0
17/05:30am 16.7 17.7 15.3 91 0.8 WSW 4 11 2 6 1012.0 - 0.0
17/05:00am 17.3 17.6 16.1 93 0.7 SW 9 11 5 6 1011.6 - 0.0
17/04:30am 15.9 15.7 14.7 93 0.7 W 9 11 5 6 1011.3 - 0.0
17/04:00am 16.7 17.3 15.3 91 0.8 S 6 7 3 4 1011.2 - 0.0
17/03:30am 17.2 18.8 16.0 93 0.7 WNW 2 7 1 4 1011.1 - 0.0
17/03:00am 16.9 17.4 15.5 91 0.8 WNW 7 11 4 6 1011.0 1011.0 0.0
17/02:30am 17.8 18.9 16.5 92 0.8 WSW 6 7 3 4 1011.2 - 0.0
17/02:00am 18.0 19.1 16.7 92 0.8 WSW 6 7 3 4 1011.3 - 0.0
17/01:30am 18.7 19.7 16.9 89 1.1 SSE 7 9 4 5 1011.4 - 0.0
17/01:00am 18.2 20.2 16.9 92 0.8 NNE 2 6 1 3 1011.4 - 0.0
17/12:30am 18.9 20.5 17.8 93 0.7 S 6 9 3 5 1011.4 - 0.0
17/12:00am 19.2 20.3 17.2 88 1.2 SSW 7 11 4 6 1011.9 1011.9 0.0
 
Date/Time
WST
Temp
°C
App
Temp
°C
Dew
Point
Rel
Hum
%
Delta-T
°C
Wind Press
QNH
hPa
Press
MSL
hPa
Rain
since 9 am
mm
Dir
 
Spd
km/h
Gust
km/h
Spd
kts
Gust
kts
16/11:30pm 19.9 21.4 18.1 89 1.1 S 7 11 4 6 1012.1 - 0.0
16/11:00pm 21.7 23.9 19.7 88 1.3 SW 7 7 4 4 1012.1 - 0.0
16/10:30pm 21.6 22.7 19.6 88 1.3 NNW 13 17 7 9 1012.2 - 0.0
16/10:00pm 22.0 24.2 20.3 90 1.1 NW 9 11 5 6 1012.3 - 0.0
16/09:30pm 21.9 24.0 20.2 90 1.1 NNW 9 13 5 7 1012.3 - 0.0
16/09:00pm 21.5 22.6 19.6 89 1.2 NNW 13 15 7 8 1012.3 1012.3 0.0
16/08:30pm 22.0 23.7 19.3 85 1.7 N 9 13 5 7 1012.3 - 0.0
16/08:00pm 22.0 24.1 19.3 85 1.7 NNW 7 9 4 5 1012.0 - 0.0
16/07:30pm 22.4 23.7 19.3 82 2.0 NNW 11 15 6 8 1011.8 - 0.0
16/07:00pm 23.4 26.6 19.7 80 2.4 NNE 2 7 1 4 1011.3 - 0.0
16/06:30pm 23.8 24.9 19.6 77 2.7 N 13 17 7 9 1010.9 - 0.0
16/06:00pm 25.0 24.8 18.4 66 4.2 NNW 17 19 9 10 1010.8 1010.8 0.0
16/05:30pm 26.4 26.5 19.1 64 4.7 NNW 17 20 9 11 1010.4 - 0.0
16/05:00pm 28.0 27.2 16.2 48 7.3 NW 15 17 8 9 1010.2 - 0.0
16/04:30pm 28.8 28.5 19.1 55 6.3 NNW 19 22 10 12 1010.1 - 0.0
16/04:00pm 29.3 27.4 15.3 42 8.6 N 19 24 10 13 1010.1 - 0.0
16/03:30pm 29.6 28.6 17.6 48 7.6 NNW 19 24 10 13 1009.9 - 0.0
16/03:00pm 30.0 28.8 17.6 47 7.9 NNW 20 26 11 14 1009.9 1009.9 0.0
16/02:30pm 30.2 28.5 17.1 45 8.3 N 22 32 12 17 1009.9 - 0.0
16/02:00pm 29.9 27.6 15.7 42 8.8 N 22 30 12 16 1010.3 - 0.0
16/01:30pm 30.2 29.3 18.2 48 7.7 N 20 26 11 14 1010.5 - 0.0
16/01:00pm 29.7 29.4 19.6 54 6.6 N 20 26 11 14 1010.8 - 0.0
16/12:30pm 30.2 30.3 19.1 51 7.2 N 17 24 9 13 1011.0 - 0.0
16/12:00pm 30.9 31.0 17.4 44 8.6 N 13 17 7 9 1011.3 1011.3 0.0
16/11:30am 29.8 29.8 18.1 49 7.5 N 15 20 8 11 1011.8 - 0.0
16/11:00am 28.5 28.9 19.1 56 6.1 NNE 15 20 8 11 1012.3 - 0.0
16/10:30am 27.1 28.6 20.6 67 4.3 NNE 13 20 7 11 1012.7 - 0.0
16/10:00am 26.5 28.2 20.2 68 4.1 NNE 11 15 6 8 1012.9 - 0.0
16/09:30am 25.0 26.8 21.2 79 2.5 NNE 13 17 7 9 1013.0 - 0.0
16/09:00am 24.6 25.9 20.9 80 2.4 NNE 15 20 8 11 1013.1 1013.1 0.2
16/08:52am 24.6 26.3 20.9 80 2.4 NNE 13 19 7 10 1013.1 - 0.2
16/08:30am 24.2 25.9 21.0 82 2.1 NE 13 19 7 10 1013.1 - 0.2
16/08:05am 22.5 24.6 21.7 95 0.5 NE 13 17 7 9 1012.8 - 0.2
16/08:00am 22.1 24.3 21.8 98 0.2 ENE 13 20 7 11 1012.7 - 0.2
16/07:46am 21.6 23.3 21.6 100 0.0 ENE 15 19 8 10 1012.7 - 0.2
16/07:32am 21.3 21.9 21.1 99 0.1 NE 19 22 10 12 1012.5 - 0.2
16/07:30am 21.3 22.1 21.3 100 0.0 NE 19 22 10 12 1012.6 - 0.2
16/07:21am 21.5 22.6 21.3 99 0.1 NE 17 22 9 12 1012.4 - 0.2
16/07:06am 21.0 23.1 21.0 100 0.0 NE 11 19 6 10 1012.3 - 0.2
16/07:00am 20.9 22.5 20.7 99 0.1 ENE 13 19 7 10 1012.1 - 0.2
16/06:37am 19.7 21.1 19.5 99 0.1 ENE 11 17 6 9 1011.7 - 0.0
16/06:30am 19.5 20.0 19.3 99 0.1 ENE 15 22 8 12 1011.8 - 0.0
16/06:13am 17.9 18.2 17.9 100 0.0 E 13 15 7 8 1011.6 - 0.0
16/06:00am 18.3 19.5 18.3 100 0.0 E 9 13 5 7 1011.4 1011.4 0.0
16/05:53am 18.4 19.6 18.2 99 0.1 E 9 13 5 7 1011.3 - 0.0
16/05:51am 18.3 19.5 18.3 100 0.0 E 9 13 5 7 1011.3 - 0.0
16/05:31am 18.3 20.1 18.3 100 0.0 NE 6 9 3 5 1011.3 - 0.0
16/05:30am 18.3 20.1 18.3 100 0.0 NE 6 9 3 5 1011.2 - 0.0
16/05:00am 18.0 20.8 18.0 100 0.0 CALM 0 - 0 - 1010.9 - 0.0
16/04:39am 18.7 21.4 18.7 100 0.0 ESE 2 7 1 4 1010.7 - 0.0
16/04:30am 18.5 20.2 18.5 100 0.0 ESE 7 9 4 5 1010.7 - 0.0
16/04:20am 18.9 20.8 18.9 100 0.0 SE 7 9 4 5 1010.6 - 0.0
16/04:00am 19.0 20.5 19.0 100 0.0 SE 9 11 5 6 1010.4 - 0.0
16/03:55am 19.1 20.7 19.1 100 0.0 SE 9 11 5 6 1010.3 - 0.0
16/03:51am 19.1 20.7 19.1 100 0.0 SE 9 11 5 6 1010.2 - 0.0
16/03:30am 18.9 20.8 18.9 100 0.0 SE 7 9 4 5 1010.5 - 0.0
16/03:00am 18.6 20.0 18.6 100 0.0 SSE 9 13 5 7 1010.4 1010.4 0.0
16/02:33am 18.7 20.4 18.5 99 0.1 SE 7 13 4 7 1010.4 - 0.0
16/02:30am 18.8 20.2 18.6 99 0.1 SSE 9 13 5 7 1010.5 - 0.0
16/02:20am 18.4 19.5 18.1 98 0.2 SSW 9 11 5 6 1010.5 - 0.0
16/02:10am 18.8 20.3 18.8 100 0.0 S 9 13 5 7 1010.6 - 0.0
16/02:00am 19.0 20.8 18.8 99 0.1 SSW 7 11 4 6 1010.7 - 0.0
16/01:47am 19.0 20.1 18.8 99 0.1 SW 11 11 6 6 1010.7 - 0.0
16/01:46am 19.0 20.2 19.0 100 0.0 SW 11 11 6 6 1010.7 - 0.0
16/01:30am 19.4 21.1 19.4 100 0.0 SSW 9 11 5 6 1010.9 - 0.0
16/01:00am 19.1 20.8 18.6 97 0.3 W 7 9 4 5 1011.2 - 0.0
16/12:30am 19.9 23.4 19.6 98 0.2 CALM 0 - 0 - 1011.5 - 0.0
16/12:00am 20.5 24.5 20.5 100 0.0 CALM 0 - 0 - 1011.8 1011.8 0.0
 
Date/Time
WST
Temp
°C
App
Temp
°C
Dew
Point
Rel
Hum
%
Delta-T
°C
Wind Press
QNH
hPa
Press
MSL
hPa
Rain
since 9 am
mm
Dir
 
Spd
km/h
Gust
km/h
Spd
kts
Gust
kts
15/11:30pm 21.0 24.3 20.8 99 0.1 W 4 6 2 3 1012.2 - 0.0
15/11:19pm 21.6 24.7 21.1 97 0.3 W 6 7 3 4 1012.1 - 0.0
15/11:06pm 21.6 24.3 21.3 98 0.2 W 9 9 5 5 1012.2 - 0.0
15/11:00pm 21.6 24.3 21.3 98 0.2 W 9 9 5 5 1012.2 - 0.0
15/10:30pm 22.5 26.1 22.0 97 0.3 NW 6 7 3 4 1012.5 - 0.0
15/10:00pm 22.6 25.2 22.0 96 0.4 NW 11 13 6 7 1012.6 - 0.0
15/09:30pm 23.4 25.3 22.7 96 0.5 NNW 17 17 9 9 1012.7 - 0.0
15/09:00pm 23.8 26.5 22.9 95 0.6 NNW 13 19 7 10 1012.9 1012.9 0.0
15/08:30pm 24.2 27.8 23.0 93 0.8 WNW 9 11 5 6 1012.9 - 0.0
15/08:00pm 24.4 26.6 23.2 93 0.8 NW 17 19 9 10 1012.6 - 0.0
15/07:59pm 24.4 26.6 23.2 93 0.8 NW 17 19 9 10 1012.6 - 0.0
15/07:30pm 24.4 28.1 23.2 93 0.8 W 9 17 5 9 1012.4 - 0.0
15/07:23pm 24.5 28.8 23.3 93 0.8 S 6 7 3 4 1012.6 - 0.0
15/07:00pm 24.2 26.7 23.2 94 0.7 NW 15 24 8 13 1011.9 - 0.0
15/06:32pm 24.4 26.6 23.2 93 0.8 NNW 17 24 9 13 1011.7 - 0.0
15/06:30pm 24.5 26.3 23.3 93 0.8 NNW 19 24 10 13 1011.7 - 0.0
15/06:18pm 24.7 28.4 23.2 91 1.0 NE 9 13 5 7 1011.6 - 0.0
15/06:00pm 24.6 26.3 23.1 91 1.0 NNW 19 26 10 14 1011.1 1011.1 0.0
15/05:30pm 25.0 27.1 23.1 89 1.3 N 17 24 9 13 1011.0 - 0.0
15/05:13pm 25.3 26.9 23.2 88 1.4 N 20 26 11 14 1011.1 - 0.0
15/05:00pm 25.6 27.2 23.2 86 1.6 N 20 26 11 14 1011.0 - 0.0
15/04:37pm 26.4 27.5 23.0 81 2.3 NNE 22 30 12 16 1010.9 - 0.0
15/04:30pm 25.9 27.0 23.1 84 1.9 NNE 22 30 12 16 1010.9 - 0.0
15/04:00pm 25.9 27.4 23.1 84 1.9 NNE 20 30 11 16 1010.9 - 0.0
15/03:30pm 26.6 26.4 22.1 76 3.0 NNE 26 33 14 18 1010.8 - 0.0
15/03:00pm 27.0 26.7 21.9 73 3.4 N 26 39 14 21 1010.7 1010.7 0.0
15/02:30pm 27.6 26.6 20.5 65 4.7 N 26 35 14 19 1010.7 - 0.0
15/02:00pm 27.6 27.4 21.3 68 4.2 N 24 30 13 16 1010.8 - 0.0
15/01:30pm 27.4 26.5 19.9 63 4.9 N 24 32 13 17 1011.0 - 0.0
15/01:00pm 27.2 26.6 20.5 67 4.4 N 24 30 13 16 1011.1 - 0.0
15/12:30pm 27.8 26.8 18.8 58 5.8 NNE 22 28 12 15 1011.2 - 0.0
15/12:00pm 32.3 28.0 10.9 27 12.4 NNE 24 32 13 17 1011.4 1011.4 0.0
15/11:30am 34.3 28.6 6.8 18 15.1 NNE 26 30 14 16 1011.8 - 0.0
15/11:00am 32.9 28.9 9.0 23 13.5 NNE 20 26 11 14 1012.1 - 0.0
15/10:30am 32.5 27.7 5.4 18 14.4 NNE 20 26 11 14 1012.3 - 0.0
15/10:00am 34.9 29.0 -2.3 9 17.7 ESE 19 26 10 14 1012.3 - 0.0
15/09:30am 33.4 27.3 -2.3 10 16.8 ESE 20 30 11 16 1012.5 - 0.0
15/09:00am 31.5 26.6 1.7 15 14.8 ESE 17 22 9 12 1012.5 1012.5 0.0
15/08:30am 30.1 26.8 4.6 20 13.2 ESE 11 17 6 9 1012.5 - 0.0
15/08:00am 26.8 25.7 9.9 34 9.4 SE 6 9 3 5 1012.4 - 0.0
15/07:30am 23.3 21.9 9.7 42 7.4 S 7 11 4 6 1012.2 - 0.0
15/07:00am 21.2 19.8 9.4 47 6.3 SE 7 13 4 7 1012.0 - 0.0
15/06:30am 18.6 15.9 7.3 47 5.7 ESE 11 13 6 7 1011.9 - 0.0
15/06:00am 19.2 16.8 6.9 44 6.2 SSE 9 11 5 6 1011.6 1011.6 0.0
15/05:30am 18.8 17.7 7.1 46 5.9 ESE 2 7 1 4 1011.4 - 0.0
15/05:00am 20.0 18.1 7.5 44 6.4 ESE 7 11 4 6 1011.1 - 0.0
15/04:30am 20.8 17.8 6.0 38 7.4 ESE 11 17 6 9 1011.1 - 0.0
15/04:00am 21.0 19.1 6.9 40 7.2 W 6 7 3 4 1010.4 - 0.0
15/03:30am 22.1 18.0 6.1 35 8.1 SSW 17 19 9 10 1010.4 - 0.0
15/03:00am 22.1 17.7 7.5 39 7.6 SSW 20 24 11 13 1010.4 1010.4 0.0
15/02:30am 20.7 18.6 11.3 55 5.2 SSW 13 17 7 9 1010.7 - 0.0
15/02:00am 22.5 20.7 12.1 51 5.9 NE 13 19 7 10 1010.9 - 0.0

Other Formats:

Comma delimited format used in spreadsheet applications
http://www.bom.gov.au/fwo/IDW60801/IDW60801.94312.axf

JavaScript Object Notation format (JSON) in row-major order
http://www.bom.gov.au/fwo/IDW60801/IDW60801.94312.json